createdAt,value
2023-03-21T00:02:24.289Z,3.10
2023-03-21T00:05:15.796Z,3.10
2023-03-21T00:08:20.149Z,3.00
2023-03-21T00:11:09.717Z,2.90
2023-03-21T00:14:02.302Z,2.90
2023-03-21T00:16:50.808Z,2.90
2023-03-21T00:19:38.966Z,2.80
2023-03-21T00:22:27.664Z,2.80
2023-03-21T00:25:14.612Z,2.70
2023-03-21T00:28:08.302Z,2.70
2023-03-21T00:30:59.113Z,2.70
2023-03-21T00:33:46.412Z,2.60
2023-03-21T00:36:33.690Z,2.60
2023-03-21T00:39:22.346Z,2.50
2023-03-21T00:42:09.916Z,2.50
2023-03-21T00:44:57.279Z,2.40
2023-03-21T00:47:45.090Z,2.30
2023-03-21T00:50:34.569Z,2.20
2023-03-21T00:53:23.046Z,2.10
2023-03-21T00:56:12.702Z,2.10
2023-03-21T00:59:00.224Z,2.00
2023-03-21T01:01:47.904Z,2.00
2023-03-21T01:04:38.690Z,2.00
2023-03-21T01:07:25.858Z,1.90
2023-03-21T01:10:13.496Z,1.90
2023-03-21T01:13:02.713Z,1.90
2023-03-21T01:15:51.519Z,1.80
2023-03-21T01:18:40.408Z,1.70
2023-03-21T01:21:27.953Z,1.70
2023-03-21T01:24:15.154Z,1.80
2023-03-21T01:27:04.139Z,1.60
2023-03-21T01:29:52.436Z,1.60
2023-03-21T01:32:39.823Z,1.50
2023-03-21T01:35:30.016Z,1.40
2023-03-21T01:38:19.478Z,1.40
2023-03-21T01:41:18.705Z,1.60
2023-03-21T01:44:07.604Z,1.40
2023-03-21T01:47:09.761Z,1.30
2023-03-21T01:50:02.740Z,1.20
2023-03-21T01:52:54.338Z,1.20
2023-03-21T01:55:42.160Z,1.10
2023-03-21T01:58:30.139Z,1.10
2023-03-21T02:01:17.450Z,1.10
2023-03-21T02:04:09.645Z,1.10
2023-03-21T02:07:01.130Z,1.20
2023-03-21T02:09:52.200Z,1.10
2023-03-21T02:12:39.616Z,1.00
2023-03-21T02:15:28.393Z,1.00
2023-03-21T02:18:23.582Z,1.00
2023-03-21T02:21:48.967Z,1.10
2023-03-21T02:25:21.199Z,0.90
2023-03-21T02:28:16.801Z,0.90
2023-03-21T02:31:19.315Z,0.80
2023-03-21T02:34:38.591Z,0.80
2023-03-21T02:37:37.568Z,0.80
2023-03-21T02:40:29.272Z,0.70
2023-03-21T02:43:23.802Z,0.70
2023-03-21T02:46:17.277Z,0.60
2023-03-21T02:49:10.647Z,0.60
2023-03-21T02:52:08.574Z,0.70
2023-03-21T02:55:04.999Z,0.70
2023-03-21T02:57:53.898Z,0.70
2023-03-21T03:00:43.486Z,0.70
2023-03-21T03:03:34.515Z,0.70
2023-03-21T03:06:25.697Z,0.80
2023-03-21T03:09:27.330Z,0.60
2023-03-21T03:12:26.132Z,1.20
2023-03-21T03:15:22.173Z,0.40
2023-03-21T03:18:19.995Z,0.40
2023-03-21T03:21:16.277Z,0.40
2023-03-21T03:24:06.380Z,0.60
2023-03-21T03:26:58.738Z,0.50
2023-03-21T03:29:50.107Z,0.40
2023-03-21T03:32:44.976Z,0.40
2023-03-21T03:35:32.292Z,0.40
2023-03-21T03:38:22.135Z,0.40
2023-03-21T03:41:14.793Z,0.40
2023-03-21T03:44:03.527Z,0.40
2023-03-21T03:46:59.777Z,0.30
2023-03-21T03:49:53.077Z,0.30
2023-03-21T03:52:55.811Z,0.30
2023-03-21T03:55:44.378Z,0.40
2023-03-21T03:58:44.583Z,0.20
2023-03-21T04:01:32.734Z,0.10
2023-03-21T04:04:23.123Z,0.10
2023-03-21T04:07:10.694Z,0.00
2023-03-21T04:09:57.998Z,0.40
2023-03-21T04:12:45.396Z,0.10
2023-03-21T04:15:32.390Z,0.00
2023-03-21T04:18:19.656Z,0.00
2023-03-21T04:21:10.966Z,0.00
2023-03-21T04:23:58.172Z,0.00
2023-03-21T04:26:45.388Z,0.30
2023-03-21T04:29:32.297Z,0.00
2023-03-21T04:32:19.932Z,0.00
2023-03-21T04:35:11.469Z,-0.10
2023-03-21T04:37:59.964Z,-0.10
2023-03-21T04:40:47.300Z,-0.20
2023-03-21T04:43:34.222Z,-0.20
2023-03-21T04:46:21.334Z,-0.20
2023-03-21T04:49:08.832Z,-0.20
2023-03-21T04:51:55.947Z,-0.20
2023-03-21T04:54:44.638Z,-0.20
2023-03-21T04:57:32.330Z,-0.20
2023-03-21T05:00:19.695Z,-0.20
2023-03-21T05:03:09.092Z,-0.20
2023-03-21T05:05:56.568Z,-0.20
2023-03-21T05:08:43.917Z,-0.20
2023-03-21T05:11:33.302Z,-0.20
2023-03-21T05:14:22.263Z,-0.30
2023-03-21T05:17:10.683Z,-0.30
2023-03-21T05:19:58.075Z,-0.30
2023-03-21T05:22:46.306Z,-0.30
2023-03-21T05:25:38.234Z,-0.40
2023-03-21T05:28:31.562Z,-0.20
2023-03-21T05:31:20.439Z,-0.30
2023-03-21T05:34:07.872Z,-0.30
2023-03-21T05:36:55.683Z,-0.30
2023-03-21T05:39:42.947Z,-0.10
2023-03-21T05:42:30.001Z,-0.20
2023-03-21T05:45:18.703Z,-0.10
2023-03-21T05:48:06.663Z,-0.10
2023-03-21T05:50:55.124Z,0.00
2023-03-21T05:53:42.264Z,0.10
2023-03-21T05:56:29.088Z,0.10
2023-03-21T05:59:16.686Z,0.60
2023-03-21T06:02:05.409Z,0.40
2023-03-21T06:04:52.446Z,0.30
2023-03-21T06:07:39.945Z,0.40
2023-03-21T06:10:29.609Z,0.50
2023-03-21T06:13:16.992Z,0.50
2023-03-21T06:16:04.743Z,0.60
2023-03-21T06:18:53.471Z,0.70
2023-03-21T06:21:41.491Z,0.90
2023-03-21T06:24:28.562Z,0.80
2023-03-21T06:27:16.051Z,0.90
2023-03-21T06:30:07.034Z,0.90
2023-03-21T06:32:55.078Z,1.00
2023-03-21T06:35:43.836Z,1.20
2023-03-21T06:38:31.809Z,1.50
2023-03-21T06:41:20.562Z,1.40
2023-03-21T06:44:08.096Z,1.60
2023-03-21T06:46:59.125Z,1.60
2023-03-21T06:49:47.646Z,1.80
2023-03-21T06:52:37.533Z,1.90
2023-03-21T06:55:27.585Z,2.00
2023-03-21T06:58:15.336Z,2.10
2023-03-21T07:01:03.210Z,2.00
2023-03-21T07:03:50.317Z,2.70
2023-03-21T07:06:39.635Z,3.70
2023-03-21T07:09:28.286Z,4.60
2023-03-21T07:12:18.410Z,4.80
2023-03-21T07:15:06.934Z,5.00
2023-03-21T07:17:54.322Z,5.30
2023-03-21T07:20:41.394Z,5.30
2023-03-21T07:23:29.438Z,5.10
2023-03-21T07:26:18.536Z,5.30
2023-03-21T07:29:06.701Z,5.50
2023-03-21T07:31:53.610Z,5.60
2023-03-21T07:34:40.848Z,5.90
2023-03-21T07:37:28.094Z,6.00
2023-03-21T07:40:15.215Z,6.20
2023-03-21T07:45:50.714Z,6.80
2023-03-21T07:48:38.157Z,7.30
2023-03-21T07:51:25.435Z,7.00
2023-03-21T07:54:12.403Z,7.10
2023-03-21T07:56:59.746Z,7.50
2023-03-21T07:59:48.410Z,7.40
2023-03-21T08:02:35.884Z,7.10
2023-03-21T08:05:24.163Z,8.20
2023-03-21T08:08:11.542Z,8.80
2023-03-21T08:10:58.477Z,9.10
2023-03-21T08:13:45.784Z,9.00
2023-03-21T08:16:34.327Z,8.60
2023-03-21T08:19:21.951Z,7.90
2023-03-21T08:22:08.863Z,7.90
2023-03-21T08:24:55.950Z,8.00
2023-03-21T08:27:43.793Z,7.50
2023-03-21T08:30:31.055Z,7.20
2023-03-21T08:33:19.757Z,7.40
2023-03-21T08:36:08.343Z,7.40
2023-03-21T08:39:04.249Z,8.00
2023-03-21T08:41:51.264Z,8.40
2023-03-21T08:44:39.030Z,8.70
2023-03-21T08:47:26.120Z,8.10
2023-03-21T08:50:18.282Z,8.40
2023-03-21T08:53:05.045Z,8.50
2023-03-21T08:55:52.001Z,8.70
2023-03-21T08:58:39.281Z,8.70
2023-03-21T09:01:26.377Z,8.50
2023-03-21T09:04:13.472Z,8.60
2023-03-21T09:07:05.385Z,8.20
2023-03-21T09:10:02.999Z,8.00
2023-03-21T09:13:00.456Z,8.20
2023-03-21T09:15:47.386Z,8.90
2023-03-21T09:18:47.245Z,9.00
2023-03-21T09:21:35.004Z,9.10
2023-03-21T09:24:24.339Z,9.10
2023-03-21T09:27:11.384Z,9.20
2023-03-21T09:29:58.880Z,9.60
2023-03-21T09:32:52.464Z,9.30
2023-03-21T09:35:40.001Z,9.70
2023-03-21T09:38:30.384Z,9.60
2023-03-21T09:41:38.384Z,9.90
2023-03-21T09:44:38.107Z,10.60
2023-03-21T09:47:29.247Z,11.80
2023-03-21T09:50:20.561Z,12.50
2023-03-21T09:53:13.151Z,13.40
2023-03-21T09:56:02.257Z,13.00
2023-03-21T09:58:54.906Z,13.10
2023-03-21T10:01:45.618Z,12.80
2023-03-21T10:04:34.053Z,13.00
2023-03-21T10:07:21.089Z,13.20
2023-03-21T10:10:11.451Z,13.30
2023-03-21T10:12:58.502Z,13.10
2023-03-21T10:15:47.840Z,13.30
2023-03-21T10:18:35.609Z,13.00
2023-03-21T10:21:51.450Z,13.40
2023-03-21T10:24:34.444Z,13.50
2023-03-21T10:27:21.620Z,14.20
2023-03-21T10:30:12.904Z,14.90
2023-03-21T10:33:05.234Z,15.20
2023-03-21T10:35:55.060Z,15.00
2023-03-21T10:38:46.588Z,15.50
2023-03-21T10:41:34.817Z,15.40
2023-03-21T10:44:22.590Z,15.10
2023-03-21T10:47:11.107Z,14.80
2023-03-21T10:50:08.516Z,14.60
2023-03-21T10:53:00.886Z,14.60
2023-03-21T10:55:51.756Z,14.50
2023-03-21T10:58:44.905Z,14.50
2023-03-21T11:01:37.882Z,14.50
2023-03-21T11:04:28.716Z,15.00
2023-03-21T11:07:20.555Z,14.80
2023-03-21T11:10:20.011Z,15.00
2023-03-21T11:13:20.709Z,15.80
2023-03-21T11:16:10.997Z,16.00
2023-03-21T11:19:02.302Z,16.30
2023-03-21T11:21:49.023Z,16.00
2023-03-21T11:24:37.755Z,15.90
2023-03-21T11:27:29.303Z,15.30
2023-03-21T11:30:22.851Z,15.70
2023-03-21T11:33:10.194Z,16.00
2023-03-21T11:36:02.659Z,16.90
2023-03-21T11:38:51.454Z,16.90
2023-03-21T11:41:43.448Z,17.90
2023-03-21T11:44:33.919Z,18.30
2023-03-21T11:47:21.086Z,19.00
2023-03-21T11:50:18.737Z,19.50
2023-03-21T11:53:28.918Z,19.70
2023-03-21T11:56:27.912Z,19.00
2023-03-21T11:59:34.680Z,18.20
2023-03-21T12:06:33.938Z,18.40
2023-03-21T12:09:49.811Z,19.10
2023-03-21T12:12:50.194Z,19.30
2023-03-21T12:15:49.403Z,19.40
2023-03-21T12:18:57.154Z,19.20
2023-03-21T12:21:55.018Z,19.10
2023-03-21T12:24:50.812Z,19.30
2023-03-21T12:27:43.946Z,19.30
2023-03-21T12:30:41.602Z,19.30
2023-03-21T12:34:00.903Z,19.80
2023-03-21T12:37:08.420Z,19.90
2023-03-21T12:40:01.163Z,20.00
2023-03-21T12:43:02.064Z,19.70
2023-03-21T12:45:52.789Z,19.40
2023-03-21T12:48:47.525Z,18.80
2023-03-21T12:51:38.654Z,18.60
2023-03-21T12:54:30.718Z,18.30
2023-03-21T12:57:21.331Z,17.90
2023-03-21T13:00:15.207Z,17.90
2023-03-21T13:03:06.445Z,17.90
2023-03-21T13:05:58.763Z,17.60
2023-03-21T13:08:52.228Z,17.70
2023-03-21T13:11:39.422Z,17.00
2023-03-21T13:14:34.570Z,16.80
2023-03-21T13:17:28.223Z,16.40
2023-03-21T13:20:26.935Z,16.40
2023-03-21T13:23:15.676Z,16.40
2023-03-21T13:26:03.377Z,16.50
2023-03-21T13:28:50.779Z,16.50
2023-03-21T13:31:50.992Z,16.40
2023-03-21T13:34:41.504Z,16.60
2023-03-21T13:37:32.493Z,16.60
2023-03-21T13:40:27.320Z,16.80
2023-03-21T13:43:35.076Z,16.60
2023-03-21T13:46:52.584Z,16.70
2023-03-21T13:49:40.278Z,16.80
2023-03-21T13:52:29.402Z,16.80
2023-03-21T13:55:20.779Z,17.00
2023-03-21T13:58:33.756Z,16.80
2023-03-21T14:01:35.790Z,16.80
2023-03-21T14:04:32.223Z,16.80
2023-03-21T14:07:31.805Z,16.50
2023-03-21T14:10:22.302Z,16.50
2023-03-21T14:13:10.930Z,16.40
2023-03-21T14:16:06.801Z,16.30
2023-03-21T14:18:57.070Z,15.90
2023-03-21T14:21:51.620Z,15.80
2023-03-21T14:24:38.191Z,16.00
2023-03-21T14:27:27.209Z,16.10
2023-03-21T14:30:24.307Z,16.20
2023-03-21T14:33:20.037Z,16.30
2023-03-21T14:36:12.105Z,16.10
2023-03-21T14:39:07.302Z,16.20
2023-03-21T14:41:56.355Z,16.00
2023-03-21T14:44:56.928Z,16.10
2023-03-21T14:47:55.570Z,16.40
2023-03-21T14:50:49.444Z,16.10
2023-03-21T14:53:39.724Z,16.00
2023-03-21T14:56:30.090Z,15.70
2023-03-21T14:59:20.341Z,15.40
2023-03-21T15:02:16.960Z,15.50
2023-03-21T15:05:10.848Z,15.30
2023-03-21T15:08:02.248Z,15.20
2023-03-21T15:11:08.175Z,15.20
2023-03-21T15:13:57.160Z,15.20
2023-03-21T15:16:44.294Z,15.20
2023-03-21T15:19:34.891Z,15.20
2023-03-21T15:22:31.121Z,15.30
2023-03-21T15:25:23.238Z,15.10
2023-03-21T15:28:14.455Z,15.20
2023-03-21T15:31:01.746Z,15.30
2023-03-21T15:33:49.854Z,15.30
2023-03-21T15:36:38.978Z,15.20
2023-03-21T15:39:28.604Z,15.10
2023-03-21T15:42:29.423Z,15.00
2023-03-21T15:45:22.562Z,14.90
2023-03-21T15:48:14.245Z,14.80
2023-03-21T15:51:05.503Z,14.70
2023-03-21T15:53:54.538Z,14.50
2023-03-21T15:56:46.135Z,14.50
2023-03-21T15:59:38.787Z,14.30
2023-03-21T16:02:30.851Z,14.10
2023-03-21T16:05:28.515Z,14.00
2023-03-21T16:08:22.044Z,13.90
2023-03-21T16:11:10.573Z,13.80
2023-03-21T16:13:57.839Z,13.60
2023-03-21T16:16:47.387Z,13.50
2023-03-21T16:19:34.746Z,13.40
2023-03-21T16:22:22.501Z,13.30
2023-03-21T16:25:10.450Z,13.10
2023-03-21T16:27:58.561Z,13.10
2023-03-21T16:30:46.405Z,13.00
2023-03-21T16:33:34.661Z,13.00
2023-03-21T16:36:22.839Z,12.90
2023-03-21T16:39:18.225Z,12.80
2023-03-21T16:42:05.759Z,12.70
2023-03-21T16:44:52.685Z,12.60
2023-03-21T16:47:39.971Z,12.60
2023-03-21T16:50:31.738Z,12.60
2023-03-21T16:53:18.693Z,12.50
2023-03-21T16:56:11.155Z,12.50
2023-03-21T16:58:59.265Z,12.40
2023-03-21T17:01:48.359Z,12.40
2023-03-21T17:04:36.976Z,12.30
2023-03-21T17:07:25.423Z,12.20
2023-03-21T17:10:18.527Z,12.20
2023-03-21T17:13:05.722Z,12.10
2023-03-21T17:15:52.899Z,12.00
2023-03-21T17:18:40.455Z,11.90
2023-03-21T17:21:30.033Z,11.80
2023-03-21T17:24:18.515Z,11.70
2023-03-21T17:27:12.621Z,11.60
2023-03-21T17:29:59.636Z,11.50
2023-03-21T17:32:47.391Z,11.30
2023-03-21T17:35:34.581Z,11.20
2023-03-21T17:38:22.150Z,11.20
2023-03-21T17:41:13.347Z,11.00
2023-03-21T17:44:03.485Z,11.00
2023-03-21T17:46:51.988Z,10.80
2023-03-21T17:49:39.488Z,10.80
2023-03-21T17:52:26.280Z,10.70
2023-03-21T17:55:13.973Z,10.60
2023-03-21T17:58:02.948Z,10.50
2023-03-21T18:00:51.595Z,10.50
2023-03-21T18:03:38.509Z,10.50
2023-03-21T18:06:27.846Z,10.40
2023-03-21T18:09:19.910Z,10.30
2023-03-21T18:12:08.998Z,10.20
2023-03-21T18:15:00.138Z,10.20
2023-03-21T18:17:47.004Z,10.10
2023-03-21T18:23:41.907Z,10.00
2023-03-21T18:26:31.129Z,9.90
2023-03-21T18:30:19.833Z,9.90
2023-03-21T18:32:29.037Z,9.90
2023-03-21T18:35:20.153Z,9.80
2023-03-21T18:38:07.436Z,9.80
2023-03-21T18:40:54.579Z,9.70
2023-03-21T18:44:05.380Z,9.70
2023-03-21T18:46:50.729Z,9.60
2023-03-21T18:52:46.658Z,9.50
2023-03-21T18:55:45.405Z,9.50
2023-03-21T18:58:33.686Z,9.50
2023-03-21T19:01:23.972Z,9.50
2023-03-21T19:04:23.133Z,9.30
2023-03-21T19:07:23.223Z,9.30
2023-03-21T19:10:19.995Z,9.30
2023-03-21T19:13:08.048Z,9.30
2023-03-21T19:15:56.177Z,9.20
2023-03-21T19:18:54.495Z,9.20
2023-03-21T19:21:43.493Z,9.10
2023-03-21T19:24:32.136Z,9.00
2023-03-21T19:27:19.446Z,9.00
2023-03-21T19:30:14.343Z,8.80
2023-03-21T19:33:02.499Z,8.90
2023-03-21T19:36:08.865Z,8.90
2023-03-21T19:38:58.733Z,9.00
2023-03-21T19:41:48.070Z,9.00
2023-03-21T19:44:38.031Z,9.10
2023-03-21T19:47:25.164Z,9.00
2023-03-21T19:50:49.331Z,8.90
2023-03-21T19:53:20.233Z,8.90
2023-03-21T19:56:19.646Z,8.80
2023-03-21T19:59:10.624Z,8.80
2023-03-21T20:02:09.310Z,8.70
2023-03-21T20:05:04.550Z,8.70
2023-03-21T20:07:55.742Z,8.70
2023-03-21T20:10:43.977Z,8.70
2023-03-21T20:13:31.055Z,8.60
2023-03-21T20:16:20.360Z,8.60
2023-03-21T20:19:10.280Z,8.60
2023-03-21T20:22:01.845Z,8.60
2023-03-21T20:24:49.868Z,8.60
2023-03-21T20:27:39.244Z,8.50
2023-03-21T20:30:27.458Z,8.50
2023-03-21T20:33:16.332Z,8.50
2023-03-21T20:36:37.442Z,8.40
2023-03-21T20:39:15.656Z,8.40
2023-03-21T20:42:03.596Z,8.30
2023-03-21T20:44:58.808Z,8.20
2023-03-21T20:47:46.290Z,8.20
2023-03-21T20:50:39.042Z,8.10
2023-03-21T20:53:26.831Z,8.10
2023-03-21T20:56:14.060Z,8.00
2023-03-21T20:59:17.300Z,8.00
2023-03-21T21:02:07.891Z,7.80
2023-03-21T21:05:24.213Z,7.80
2023-03-21T21:08:04.787Z,7.70
2023-03-21T21:11:36.132Z,7.80
2023-03-21T21:13:59.369Z,7.80
2023-03-21T21:16:46.756Z,7.70
2023-03-21T21:19:36.825Z,7.80
2023-03-21T21:22:24.076Z,7.80
2023-03-21T21:25:12.641Z,7.90
2023-03-21T21:28:01.892Z,8.00
2023-03-21T21:30:49.528Z,8.10
2023-03-21T21:33:38.817Z,8.10
2023-03-21T21:37:00.569Z,8.00
2023-03-21T21:39:47.315Z,8.00
2023-03-21T21:42:38.637Z,8.00
2023-03-21T21:45:25.577Z,8.00
2023-03-21T21:48:12.844Z,8.00
2023-03-21T21:51:01.721Z,8.00
2023-03-21T21:53:50.140Z,8.10
2023-03-21T21:56:38.261Z,7.90
2023-03-21T21:59:26.940Z,7.90
2023-03-21T22:02:16.885Z,7.80
2023-03-21T22:05:05.199Z,7.90
2023-03-21T22:07:56.911Z,7.90
2023-03-21T22:10:46.566Z,7.90
2023-03-21T22:13:33.428Z,7.80
2023-03-21T22:16:22.398Z,7.70
2023-03-21T22:19:12.373Z,7.70
2023-03-21T22:21:59.300Z,7.70
2023-03-21T22:24:46.090Z,7.70
2023-03-21T22:27:33.130Z,7.70
2023-03-21T22:30:20.492Z,7.60
2023-03-21T22:33:10.170Z,7.50
2023-03-21T22:35:57.075Z,7.40
2023-03-21T22:38:44.207Z,7.40
2023-03-21T22:41:30.904Z,7.40
2023-03-21T22:44:17.878Z,7.30
2023-03-21T22:47:06.353Z,7.40
2023-03-21T22:49:54.665Z,7.40
2023-03-21T22:52:41.765Z,7.20
2023-03-21T22:55:29.132Z,7.30
2023-03-21T22:58:16.197Z,7.30
2023-03-21T23:01:05.281Z,7.30
2023-03-21T23:03:52.638Z,7.30
2023-03-21T23:06:41.494Z,7.20
2023-03-21T23:09:28.719Z,7.20
2023-03-21T23:12:16.939Z,7.10
2023-03-21T23:15:03.837Z,7.00
2023-03-21T23:17:50.946Z,6.90
2023-03-21T23:20:38.590Z,6.90
2023-03-21T23:23:27.480Z,6.90
2023-03-21T23:26:14.744Z,6.90
2023-03-21T23:29:01.928Z,6.80
2023-03-21T23:31:51.947Z,6.70
2023-03-21T23:34:39.141Z,6.70
2023-03-21T23:37:26.801Z,6.60
2023-03-21T23:40:15.749Z,6.50
2023-03-21T23:43:02.794Z,6.40
2023-03-21T23:45:49.712Z,6.40
2023-03-21T23:48:37.048Z,6.40
2023-03-21T23:51:24.240Z,6.40
2023-03-21T23:54:11.530Z,6.30
2023-03-21T23:56:59.860Z,6.30
2023-03-21T23:59:47.185Z,6.20
